createdAt,value
2022-08-29T00:00:44.055Z,0.00
2022-08-29T00:01:44.348Z,0.00
2022-08-29T00:02:44.607Z,0.00
2022-08-29T00:03:44.864Z,0.00
2022-08-29T00:04:45.191Z,0.00
2022-08-29T00:05:49.943Z,0.00
2022-08-29T00:06:45.836Z,0.00
2022-08-29T00:07:46.120Z,0.00
2022-08-29T00:08:46.400Z,0.00
2022-08-29T00:09:46.663Z,0.00
2022-08-29T00:10:46.950Z,0.00
2022-08-29T00:11:47.266Z,0.00
2022-08-29T00:12:47.561Z,0.00
2022-08-29T00:13:47.780Z,0.00
2022-08-29T00:14:48.093Z,0.00
2022-08-29T00:15:48.421Z,0.00
2022-08-29T00:16:48.927Z,0.00
2022-08-29T00:17:49.000Z,0.00
2022-08-29T00:18:49.261Z,0.00
2022-08-29T00:19:49.512Z,0.00
2022-08-29T00:20:49.791Z,0.00
2022-08-29T00:21:50.032Z,0.00
2022-08-29T00:22:50.304Z,0.00
2022-08-29T00:23:50.543Z,0.00
2022-08-29T00:24:50.834Z,0.00
2022-08-29T00:25:51.057Z,0.00
2022-08-29T00:26:51.376Z,0.00
2022-08-29T00:27:51.698Z,0.00
2022-08-29T00:28:51.967Z,0.00
2022-08-29T00:29:52.215Z,0.00
2022-08-29T00:30:52.426Z,0.00
2022-08-29T00:31:52.871Z,0.00
2022-08-29T00:32:53.114Z,0.00
2022-08-29T00:33:53.346Z,0.00
2022-08-29T00:34:53.653Z,0.00
2022-08-29T00:35:53.893Z,0.00
2022-08-29T00:36:54.199Z,0.00
2022-08-29T00:37:54.507Z,0.00
2022-08-29T00:38:54.838Z,0.00
2022-08-29T00:39:55.105Z,0.00
2022-08-29T00:40:55.482Z,0.00
2022-08-29T00:41:55.670Z,0.00
2022-08-29T00:42:55.980Z,0.00
2022-08-29T00:43:56.205Z,0.00
2022-08-29T00:44:56.553Z,0.00
2022-08-29T00:45:56.922Z,0.00
2022-08-29T00:46:57.148Z,0.00
2022-08-29T00:47:57.391Z,0.00
2022-08-29T00:48:57.646Z,0.00
2022-08-29T00:49:57.882Z,0.00
2022-08-29T00:50:58.128Z,0.00
2022-08-29T00:51:58.405Z,0.00
2022-08-29T00:52:58.634Z,0.00
2022-08-29T00:53:59.009Z,0.00
2022-08-29T00:54:59.258Z,0.00
2022-08-29T00:55:59.515Z,0.00
2022-08-29T00:56:59.787Z,0.00
2022-08-29T00:58:00.085Z,0.00
2022-08-29T00:59:00.396Z,0.00
2022-08-29T01:00:00.664Z,0.00
2022-08-29T01:01:00.987Z,0.00
2022-08-29T01:02:01.380Z,0.00
2022-08-29T01:03:01.549Z,0.00
2022-08-29T01:04:01.790Z,0.00
2022-08-29T01:05:02.048Z,0.00
2022-08-29T01:06:02.411Z,0.00
2022-08-29T01:07:02.688Z,0.00
2022-08-29T01:08:03.013Z,0.00
2022-08-29T01:09:03.311Z,0.00
2022-08-29T01:10:12.736Z,0.00
2022-08-29T01:11:04.861Z,0.00
2022-08-29T01:12:04.207Z,0.00
2022-08-29T01:13:04.498Z,0.00
2022-08-29T01:14:04.782Z,0.00
2022-08-29T01:15:05.052Z,0.00
2022-08-29T01:16:05.332Z,0.00
2022-08-29T01:17:05.680Z,0.00
2022-08-29T01:19:42.648Z,0.00
2022-08-29T01:20:32.202Z,0.00
2022-08-29T01:21:32.676Z,0.00
2022-08-29T01:22:32.756Z,0.00
2022-08-29T01:23:33.064Z,0.00
2022-08-29T01:24:33.291Z,0.00
2022-08-29T01:25:33.705Z,0.00
2022-08-29T01:26:33.932Z,0.00
2022-08-29T01:27:34.140Z,0.00
2022-08-29T01:28:34.455Z,0.00
2022-08-29T01:29:34.798Z,0.00
2022-08-29T01:30:35.166Z,0.00
2022-08-29T01:31:38.561Z,0.00
2022-08-29T01:32:36.615Z,0.00
2022-08-29T01:33:35.877Z,0.00
2022-08-29T01:34:36.278Z,0.00
2022-08-29T01:35:36.458Z,0.00
2022-08-29T01:36:36.928Z,0.00
2022-08-29T01:37:37.098Z,0.00
2022-08-29T01:38:37.426Z,0.00
2022-08-29T01:39:37.747Z,0.00
2022-08-29T01:40:38.259Z,0.00
2022-08-29T01:41:38.339Z,0.00
2022-08-29T01:42:38.671Z,0.00
2022-08-29T01:43:38.965Z,0.00
2022-08-29T01:44:39.251Z,0.00
2022-08-29T01:45:39.622Z,0.00
2022-08-29T01:46:39.788Z,0.00
2022-08-29T01:47:40.160Z,0.00
2022-08-29T01:48:40.352Z,0.00
2022-08-29T01:49:41.063Z,0.00
2022-08-29T01:50:41.022Z,0.00
2022-08-29T01:51:41.394Z,0.00
2022-08-29T01:52:41.587Z,0.00
2022-08-29T01:53:41.950Z,0.00
2022-08-29T01:54:42.143Z,0.00
2022-08-29T01:55:42.475Z,0.00
2022-08-29T01:56:42.912Z,0.00
2022-08-29T01:57:43.123Z,0.00
2022-08-29T01:58:43.454Z,0.00
2022-08-29T01:59:43.780Z,0.00
2022-08-29T02:00:44.323Z,0.00
2022-08-29T02:01:44.456Z,0.00
2022-08-29T02:02:44.685Z,0.00
2022-08-29T02:03:44.919Z,0.00
2022-08-29T02:04:45.341Z,0.00
2022-08-29T02:05:45.600Z,0.00
2022-08-29T02:06:45.826Z,0.00
2022-08-29T02:07:46.249Z,0.00
2022-08-29T02:08:46.462Z,0.00
2022-08-29T02:09:46.809Z,0.00
2022-08-29T02:10:47.018Z,0.00
2022-08-29T02:11:47.360Z,0.00
2022-08-29T02:12:47.679Z,0.00
2022-08-29T02:13:48.019Z,0.00
2022-08-29T02:14:48.400Z,0.00
2022-08-29T02:15:48.621Z,0.00
2022-08-29T02:16:48.993Z,0.00
2022-08-29T02:17:49.110Z,0.00
2022-08-29T02:18:49.591Z,0.00
2022-08-29T02:19:49.807Z,0.00
2022-08-29T02:20:50.124Z,0.00
2022-08-29T02:21:50.386Z,0.00
2022-08-29T02:22:50.592Z,0.00
2022-08-29T02:23:51.280Z,0.00
2022-08-29T02:24:51.285Z,0.00
2022-08-29T02:25:51.554Z,0.00
2022-08-29T02:26:51.824Z,0.00
2022-08-29T02:27:52.166Z,0.00
2022-08-29T02:28:52.356Z,0.00
2022-08-29T02:29:52.564Z,0.00
2022-08-29T02:30:56.633Z,0.00
2022-08-29T02:31:53.267Z,0.00
2022-08-29T02:32:53.517Z,0.00
2022-08-29T02:33:53.759Z,0.00
2022-08-29T02:34:54.136Z,0.00
2022-08-29T02:35:54.409Z,0.00
2022-08-29T02:36:54.658Z,0.00
2022-08-29T02:37:55.075Z,0.00
2022-08-29T02:38:55.299Z,0.00
2022-08-29T02:39:55.818Z,0.00
2022-08-29T02:40:55.841Z,0.00
2022-08-29T02:41:56.303Z,0.00
2022-08-29T02:42:56.533Z,0.00
2022-08-29T02:43:56.829Z,0.00
2022-08-29T02:44:57.185Z,0.00
2022-08-29T02:45:57.388Z,0.00
2022-08-29T02:46:57.697Z,0.00
2022-08-29T02:47:57.851Z,0.00
2022-08-29T02:49:01.307Z,0.00
2022-08-29T02:49:58.461Z,0.00
2022-08-29T02:50:58.660Z,0.00
2022-08-29T02:51:59.088Z,0.00
2022-08-29T02:52:59.323Z,0.00
2022-08-29T02:53:59.653Z,0.00
2022-08-29T02:54:59.958Z,0.00
2022-08-29T02:56:00.233Z,0.00
2022-08-29T02:57:00.435Z,0.00
2022-08-29T02:58:00.796Z,0.00
2022-08-29T02:59:01.074Z,0.00
2022-08-29T03:00:01.316Z,0.00
2022-08-29T03:01:01.574Z,0.00
2022-08-29T03:02:01.909Z,0.00
2022-08-29T03:03:02.120Z,0.00
2022-08-29T03:04:02.446Z,0.00
2022-08-29T03:05:02.946Z,0.00
2022-08-29T03:06:03.139Z,0.00
2022-08-29T03:07:06.979Z,0.00
2022-08-29T03:08:03.738Z,0.00
2022-08-29T03:09:03.979Z,0.00
2022-08-29T03:10:04.307Z,0.00
2022-08-29T03:11:04.621Z,0.00
2022-08-29T03:12:05.210Z,0.00
2022-08-29T03:13:05.297Z,0.00
2022-08-29T03:14:05.510Z,0.00
2022-08-29T03:15:05.917Z,0.00
2022-08-29T03:16:06.251Z,0.00
2022-08-29T03:17:15.393Z,0.00
2022-08-29T03:18:06.784Z,0.00
2022-08-29T03:19:07.094Z,0.00
2022-08-29T03:20:07.423Z,0.00
2022-08-29T03:21:07.744Z,0.00
2022-08-29T03:22:08.088Z,0.00
2022-08-29T03:23:08.415Z,0.00
2022-08-29T03:24:08.658Z,0.00
2022-08-29T03:25:08.967Z,0.00
2022-08-29T03:26:09.306Z,0.00
2022-08-29T03:27:09.616Z,0.00
2022-08-29T03:28:09.938Z,0.00
2022-08-29T03:29:10.264Z,0.00
2022-08-29T03:30:11.024Z,0.00
2022-08-29T03:31:10.987Z,0.00
2022-08-29T03:32:11.218Z,0.00
2022-08-29T03:33:12.078Z,0.00
2022-08-29T03:34:11.858Z,0.00
2022-08-29T03:35:12.179Z,0.00
2022-08-29T03:36:13.926Z,0.00
2022-08-29T03:37:12.789Z,0.00
2022-08-29T03:38:13.300Z,0.00
2022-08-29T03:39:13.410Z,0.00
2022-08-29T03:40:13.820Z,0.00
2022-08-29T03:41:14.049Z,0.00
2022-08-29T03:42:14.376Z,0.00
2022-08-29T03:43:14.703Z,0.00
2022-08-29T03:44:15.012Z,0.00
2022-08-29T03:45:15.333Z,0.00
2022-08-29T03:46:15.721Z,0.00
2022-08-29T03:47:15.953Z,0.00
2022-08-29T03:48:16.153Z,0.00
2022-08-29T03:49:16.554Z,0.00
2022-08-29T03:50:16.804Z,0.00
2022-08-29T03:51:17.029Z,0.00
2022-08-29T03:52:17.364Z,0.00
2022-08-29T03:53:17.707Z,0.00
2022-08-29T03:54:18.055Z,0.00
2022-08-29T03:55:18.294Z,0.00
2022-08-29T03:56:19.185Z,0.00
2022-08-29T03:57:18.717Z,0.00
2022-08-29T03:58:19.056Z,0.00
2022-08-29T03:59:19.385Z,0.00
2022-08-29T04:00:19.736Z,0.00
2022-08-29T04:01:19.999Z,0.00
2022-08-29T04:02:20.197Z,0.00
2022-08-29T04:03:22.772Z,0.00
2022-08-29T04:04:21.853Z,0.00
2022-08-29T04:05:21.112Z,0.00
2022-08-29T04:06:21.458Z,0.00
2022-08-29T04:07:21.789Z,0.00
2022-08-29T04:08:22.159Z,0.00
2022-08-29T04:09:22.380Z,0.00
2022-08-29T04:10:22.635Z,5.62
2022-08-29T04:11:22.850Z,5.62
2022-08-29T04:12:23.190Z,5.62
2022-08-29T04:13:23.565Z,5.62
2022-08-29T04:14:23.781Z,5.62
2022-08-29T04:15:24.027Z,5.62
2022-08-29T04:16:24.308Z,5.62
2022-08-29T04:17:24.524Z,5.62
2022-08-29T04:18:24.884Z,5.62
2022-08-29T04:19:25.102Z,5.62
2022-08-29T04:20:25.863Z,5.62
2022-08-29T04:21:25.714Z,5.62
2022-08-29T04:22:25.934Z,5.62
2022-08-29T04:23:26.276Z,5.62
2022-08-29T04:24:26.625Z,5.62
2022-08-29T04:25:26.864Z,5.62
2022-08-29T04:26:42.508Z,5.62
2022-08-29T04:27:28.405Z,5.62
2022-08-29T04:28:27.698Z,5.62
2022-08-29T04:29:28.019Z,5.62
2022-08-29T04:30:28.382Z,5.62
2022-08-29T04:31:28.661Z,5.62
2022-08-29T04:32:28.950Z,5.62
2022-08-29T04:33:29.168Z,5.62
2022-08-29T04:34:29.518Z,11.25
2022-08-29T04:35:29.869Z,11.25
2022-08-29T04:36:30.098Z,11.25
2022-08-29T04:37:30.437Z,11.25
2022-08-29T04:38:30.779Z,11.25
2022-08-29T04:39:31.121Z,11.25
2022-08-29T04:40:31.528Z,11.25
2022-08-29T04:41:33.145Z,11.25
2022-08-29T04:42:32.064Z,11.25
2022-08-29T04:43:32.393Z,11.25
2022-08-29T04:44:32.682Z,11.25
2022-08-29T04:45:32.785Z,11.25
2022-08-29T04:46:33.053Z,11.25
2022-08-29T04:47:33.269Z,16.88
2022-08-29T04:48:33.502Z,16.88
2022-08-29T04:49:33.852Z,16.88
2022-08-29T04:50:34.072Z,22.50
2022-08-29T04:51:34.595Z,22.50
2022-08-29T04:52:34.728Z,28.12
2022-08-29T04:53:34.944Z,28.12
2022-08-29T04:54:35.343Z,28.12
2022-08-29T04:55:35.566Z,33.75
2022-08-29T04:56:35.852Z,33.75
2022-08-29T04:57:36.153Z,33.75
2022-08-29T04:58:36.386Z,33.75
2022-08-29T04:59:36.629Z,28.12
2022-08-29T05:00:36.857Z,33.75
2022-08-29T05:01:37.144Z,39.38
2022-08-29T05:02:37.439Z,28.12
2022-08-29T05:03:37.679Z,33.75
2022-08-29T05:04:38.048Z,33.75
2022-08-29T05:05:38.287Z,33.75
2022-08-29T05:06:38.646Z,33.75
2022-08-29T05:07:38.867Z,39.38
2022-08-29T05:08:39.127Z,33.75
2022-08-29T05:09:39.370Z,45.00
2022-08-29T05:10:39.618Z,39.38
2022-08-29T05:11:39.870Z,45.00
2022-08-29T05:12:40.110Z,45.00
2022-08-29T05:13:42.706Z,50.62
2022-08-29T05:14:40.660Z,45.00
2022-08-29T05:15:40.942Z,50.62
2022-08-29T05:16:41.248Z,56.25
2022-08-29T05:17:41.482Z,45.00
2022-08-29T05:18:42.692Z,45.00
2022-08-29T05:19:42.835Z,39.38
2022-08-29T05:20:42.262Z,39.38
2022-08-29T05:21:42.526Z,45.00
2022-08-29T05:22:42.766Z,45.00
2022-08-29T05:23:43.002Z,45.00
2022-08-29T05:24:43.265Z,50.62
2022-08-29T05:25:43.516Z,45.00
2022-08-29T05:26:44.664Z,45.00
2022-08-29T05:27:44.093Z,50.62
2022-08-29T05:28:44.345Z,50.62
2022-08-29T05:29:44.604Z,50.62
2022-08-29T05:30:44.918Z,50.62
2022-08-29T05:31:45.605Z,50.62
2022-08-29T05:32:45.429Z,50.62
2022-08-29T05:33:45.666Z,56.25
2022-08-29T05:34:45.917Z,56.25
2022-08-29T05:35:46.155Z,50.62
2022-08-29T05:36:46.400Z,45.00
2022-08-29T05:37:46.659Z,33.75
2022-08-29T05:38:46.908Z,33.75
2022-08-29T05:39:47.148Z,39.38
2022-08-29T05:40:47.392Z,50.62
2022-08-29T05:41:47.627Z,50.62
2022-08-29T05:42:47.862Z,45.00
2022-08-29T05:43:48.192Z,45.00
2022-08-29T05:44:48.460Z,45.00
2022-08-29T05:45:48.869Z,45.00
2022-08-29T05:46:48.984Z,45.00
2022-08-29T05:47:49.216Z,50.62
2022-08-29T05:48:49.461Z,61.88
2022-08-29T05:49:49.715Z,61.88
2022-08-29T05:50:49.963Z,56.25
2022-08-29T05:51:50.204Z,61.88
2022-08-29T05:52:50.448Z,56.25
2022-08-29T05:53:50.684Z,73.12
2022-08-29T05:54:50.960Z,78.75
2022-08-29T05:55:51.190Z,67.50
2022-08-29T05:56:51.456Z,73.12
2022-08-29T05:57:51.715Z,78.75
2022-08-29T05:58:51.950Z,84.38
2022-08-29T05:59:52.206Z,90.00
2022-08-29T06:00:52.455Z,95.62
2022-08-29T06:01:52.699Z,95.62
2022-08-29T06:02:53.068Z,112.50
2022-08-29T06:03:53.273Z,129.38
2022-08-29T06:04:53.447Z,123.75
2022-08-29T06:05:53.709Z,106.88
2022-08-29T06:06:53.998Z,84.38
2022-08-29T06:07:54.249Z,95.62
2022-08-29T06:08:54.488Z,129.38
2022-08-29T06:09:54.750Z,129.38
2022-08-29T06:10:56.098Z,118.12
2022-08-29T06:11:55.401Z,95.62
2022-08-29T06:12:55.652Z,112.50
2022-08-29T06:13:55.901Z,123.75
2022-08-29T06:14:56.158Z,135.00
2022-08-29T06:15:56.473Z,129.38
2022-08-29T06:16:56.751Z,118.12
2022-08-29T06:17:57.052Z,163.12
2022-08-29T06:18:57.340Z,185.62
2022-08-29T06:19:57.666Z,174.38
2022-08-29T06:20:57.962Z,157.50
2022-08-29T06:21:58.226Z,180.00
2022-08-29T06:22:58.496Z,174.38
2022-08-29T06:23:59.165Z,118.12
2022-08-29T06:24:59.035Z,151.88
2022-08-29T06:25:59.337Z,146.25
2022-08-29T06:26:59.605Z,180.00
2022-08-29T06:27:59.886Z,163.12
2022-08-29T06:29:00.187Z,208.12
2022-08-29T06:30:02.046Z,191.25
2022-08-29T06:31:00.783Z,163.12
2022-08-29T06:32:01.030Z,118.12
2022-08-29T06:33:01.256Z,123.75
2022-08-29T06:34:01.549Z,129.38
2022-08-29T06:35:01.829Z,112.50
2022-08-29T06:36:02.092Z,151.88
2022-08-29T06:37:02.389Z,174.38
2022-08-29T06:38:02.675Z,196.88
2022-08-29T06:39:02.939Z,151.88
2022-08-29T06:40:03.255Z,140.62
2022-08-29T06:41:03.479Z,180.00
2022-08-29T06:42:03.811Z,185.62
2022-08-29T06:43:04.152Z,225.00
2022-08-29T06:44:04.430Z,163.12
2022-08-29T06:45:04.727Z,151.88
2022-08-29T06:46:04.995Z,157.50
2022-08-29T06:47:05.282Z,157.50
2022-08-29T06:48:05.534Z,208.12
2022-08-29T06:49:05.807Z,225.00
2022-08-29T06:50:06.088Z,236.25
2022-08-29T06:51:06.333Z,185.62
2022-08-29T06:52:06.581Z,140.62
2022-08-29T06:53:26.339Z,129.38
2022-08-29T06:54:08.178Z,140.62
2022-08-29T06:55:07.518Z,225.00
2022-08-29T06:56:11.373Z,309.38
2022-08-29T06:57:08.017Z,202.50
2022-08-29T06:58:08.270Z,140.62
2022-08-29T06:59:08.553Z,185.62
2022-08-29T07:00:21.827Z,298.12
2022-08-29T07:01:10.108Z,303.75
2022-08-29T07:02:09.342Z,208.12
2022-08-29T07:03:09.798Z,236.25
2022-08-29T07:04:14.370Z,281.25
2022-08-29T07:05:11.161Z,292.50
2022-08-29T07:06:10.548Z,286.88
2022-08-29T07:07:10.764Z,258.75
2022-08-29T07:08:11.061Z,241.88
2022-08-29T07:09:11.312Z,241.88
2022-08-29T07:10:11.637Z,219.38
2022-08-29T07:11:11.977Z,253.12
2022-08-29T07:12:12.223Z,264.38
2022-08-29T07:13:12.463Z,343.12
2022-08-29T07:14:12.736Z,365.62
2022-08-29T07:15:13.047Z,348.75
2022-08-29T07:16:13.350Z,331.88
2022-08-29T07:17:19.021Z,298.12
2022-08-29T07:18:15.071Z,281.25
2022-08-29T07:19:14.177Z,281.25
2022-08-29T07:20:14.490Z,264.38
2022-08-29T07:21:19.576Z,241.88
2022-08-29T07:22:16.118Z,225.00
2022-08-29T07:23:15.498Z,219.38
2022-08-29T07:24:15.793Z,213.75
2022-08-29T07:25:16.044Z,208.12
2022-08-29T07:26:16.299Z,208.12
2022-08-29T07:27:16.609Z,219.38
2022-08-29T07:28:17.161Z,230.62
2022-08-29T07:29:17.191Z,236.25
2022-08-29T07:30:17.445Z,202.50
2022-08-29T07:31:17.786Z,213.75
2022-08-29T07:32:18.839Z,241.88
2022-08-29T07:33:18.294Z,208.12
2022-08-29T07:34:20.539Z,191.25
2022-08-29T07:35:29.562Z,185.62
2022-08-29T07:36:20.248Z,174.38
2022-08-29T07:37:19.577Z,213.75
2022-08-29T07:38:19.706Z,281.25
2022-08-29T07:39:20.075Z,371.25
2022-08-29T07:40:20.341Z,388.12
2022-08-29T07:41:20.448Z,388.12
2022-08-29T07:42:20.778Z,303.75
2022-08-29T07:43:24.990Z,286.88
2022-08-29T07:44:22.388Z,298.12
2022-08-29T07:45:21.690Z,315.00
2022-08-29T07:46:21.985Z,337.50
2022-08-29T07:47:22.299Z,326.25
2022-08-29T07:48:23.254Z,320.62
2022-08-29T07:49:22.906Z,343.12
2022-08-29T07:50:23.221Z,343.12
2022-08-29T07:51:23.505Z,337.50
2022-08-29T07:52:23.791Z,303.75
2022-08-29T07:53:24.040Z,258.75
2022-08-29T07:54:24.298Z,241.88
2022-08-29T07:55:24.545Z,264.38
2022-08-29T07:56:24.810Z,309.38
2022-08-29T07:57:25.033Z,326.25
2022-08-29T07:58:25.274Z,326.25
2022-08-29T07:59:25.544Z,292.50
2022-08-29T08:00:25.817Z,275.62
2022-08-29T08:01:26.193Z,292.50
2022-08-29T08:02:26.364Z,286.88
2022-08-29T08:03:26.624Z,281.25
2022-08-29T08:04:26.878Z,264.38
2022-08-29T08:05:27.128Z,258.75
2022-08-29T08:06:27.663Z,236.25
2022-08-29T08:07:28.829Z,185.62
2022-08-29T08:08:27.958Z,168.75
2022-08-29T08:09:28.232Z,163.12
2022-08-29T08:10:28.470Z,135.00
2022-08-29T08:11:28.712Z,112.50
2022-08-29T08:12:28.973Z,112.50
2022-08-29T08:13:29.200Z,118.12
2022-08-29T08:14:34.974Z,168.75
2022-08-29T08:15:30.676Z,225.00
2022-08-29T08:16:30.010Z,253.12
2022-08-29T08:17:30.242Z,253.12
2022-08-29T08:18:30.507Z,264.38
2022-08-29T08:19:30.771Z,241.88
2022-08-29T08:20:31.047Z,281.25
2022-08-29T08:21:31.296Z,320.62
2022-08-29T08:22:31.566Z,376.88
2022-08-29T08:23:31.835Z,326.25
2022-08-29T08:24:32.107Z,309.38
2022-08-29T08:25:32.397Z,315.00
2022-08-29T08:26:32.616Z,360.00
2022-08-29T08:27:32.896Z,365.62
2022-08-29T08:28:33.187Z,348.75
2022-08-29T08:29:33.397Z,376.88
2022-08-29T08:30:35.702Z,405.00
2022-08-29T08:31:34.035Z,393.75
2022-08-29T08:32:34.288Z,320.62
2022-08-29T08:33:35.783Z,309.38
2022-08-29T08:34:36.052Z,264.38
2022-08-29T08:35:35.130Z,208.12
2022-08-29T08:36:40.195Z,202.50
2022-08-29T08:37:36.679Z,208.12
2022-08-29T08:38:35.977Z,230.62
2022-08-29T08:39:36.236Z,230.62
2022-08-29T08:40:36.547Z,247.50
2022-08-29T08:41:36.773Z,303.75
2022-08-29T08:42:37.005Z,320.62
2022-08-29T08:43:37.263Z,247.50
2022-08-29T08:44:37.516Z,241.88
2022-08-29T08:45:37.818Z,241.88
2022-08-29T08:46:38.086Z,219.38
2022-08-29T08:47:38.336Z,213.75
2022-08-29T08:48:38.596Z,230.62
2022-08-29T08:49:38.829Z,281.25
2022-08-29T08:50:39.078Z,292.50
2022-08-29T08:51:39.325Z,331.88
2022-08-29T08:52:39.573Z,348.75
2022-08-29T08:53:39.835Z,343.12
2022-08-29T08:54:40.075Z,315.00
2022-08-29T08:55:40.308Z,281.25
2022-08-29T08:56:40.551Z,270.00
2022-08-29T08:57:40.791Z,292.50
2022-08-29T08:58:41.050Z,320.62
2022-08-29T08:59:41.287Z,360.00
2022-08-29T09:00:41.550Z,382.50
2022-08-29T09:01:41.859Z,376.88
2022-08-29T09:02:42.200Z,331.88
2022-08-29T09:03:42.500Z,326.25
2022-08-29T09:04:42.744Z,326.25
2022-08-29T09:05:47.264Z,343.12
2022-08-29T09:06:44.305Z,343.12
2022-08-29T09:07:43.602Z,331.88
2022-08-29T09:08:43.865Z,331.88
2022-08-29T09:09:44.216Z,326.25
2022-08-29T09:10:44.345Z,354.38
2022-08-29T09:11:44.586Z,348.75
2022-08-29T09:12:44.827Z,360.00
2022-08-29T09:13:46.161Z,410.62
2022-08-29T09:14:45.494Z,427.50
2022-08-29T09:15:45.729Z,343.12
2022-08-29T09:17:51.912Z,275.62
2022-08-29T09:18:54.086Z,292.50
2022-08-29T09:19:52.600Z,303.75
2022-08-29T09:20:52.814Z,393.75
2022-08-29T09:21:53.731Z,376.88
2022-08-29T09:22:53.317Z,326.25
2022-08-29T09:23:53.485Z,264.38
2022-08-29T09:24:53.794Z,219.38
2022-08-29T09:25:54.117Z,196.88
2022-08-29T09:26:54.548Z,191.25
2022-08-29T09:27:54.711Z,174.38
2022-08-29T09:28:55.037Z,168.75
2022-08-29T09:29:55.359Z,174.38
2022-08-29T09:30:55.659Z,219.38
2022-08-29T09:31:56.024Z,275.62
2022-08-29T09:32:56.231Z,309.38
2022-08-29T09:33:56.555Z,388.12
2022-08-29T09:35:08.319Z,371.25
2022-08-29T09:35:58.110Z,360.00
2022-08-29T09:36:57.312Z,371.25
2022-08-29T09:37:57.613Z,382.50
2022-08-29T09:38:57.924Z,382.50
2022-08-29T09:39:58.243Z,382.50
2022-08-29T09:40:58.564Z,376.88
2022-08-29T09:41:58.863Z,371.25
2022-08-29T09:42:59.134Z,371.25
2022-08-29T09:43:59.417Z,376.88
2022-08-29T09:44:59.705Z,382.50
2022-08-29T09:46:00.036Z,399.38
2022-08-29T09:47:00.307Z,388.12
2022-08-29T09:48:00.615Z,376.88
2022-08-29T09:49:00.905Z,326.25
2022-08-29T09:50:01.168Z,286.88
2022-08-29T09:51:01.440Z,281.25
2022-08-29T09:52:01.722Z,264.38
2022-08-29T09:53:01.961Z,241.88
2022-08-29T09:54:02.221Z,208.12
2022-08-29T09:55:02.483Z,180.00
2022-08-29T09:56:02.749Z,213.75
2022-08-29T09:57:03.011Z,236.25
2022-08-29T09:58:03.261Z,298.12
2022-08-29T09:59:03.539Z,309.38
2022-08-29T10:00:03.792Z,298.12
2022-08-29T10:01:04.510Z,315.00
2022-08-29T10:02:04.358Z,292.50
2022-08-29T10:03:04.664Z,303.75
2022-08-29T10:04:04.975Z,326.25
2022-08-29T10:05:05.255Z,371.25
2022-08-29T10:06:06.487Z,382.50
2022-08-29T10:07:05.798Z,337.50
2022-08-29T10:08:06.056Z,320.62
2022-08-29T10:09:06.336Z,320.62
2022-08-29T10:10:06.599Z,331.88
2022-08-29T10:11:06.857Z,326.25
2022-08-29T10:12:07.100Z,331.88
2022-08-29T10:13:07.388Z,270.00
2022-08-29T10:14:12.484Z,298.12
2022-08-29T10:15:09.045Z,320.62
2022-08-29T10:16:08.289Z,303.75
2022-08-29T10:17:08.544Z,275.62
2022-08-29T10:18:08.825Z,309.38
2022-08-29T10:19:09.161Z,315.00
2022-08-29T10:20:09.414Z,309.38
2022-08-29T10:21:09.682Z,292.50
2022-08-29T10:22:09.957Z,275.62
2022-08-29T10:23:10.183Z,286.88
2022-08-29T10:24:10.539Z,258.75
2022-08-29T10:25:10.691Z,270.00
2022-08-29T10:26:10.975Z,286.88
2022-08-29T10:27:11.235Z,286.88
2022-08-29T10:28:11.501Z,309.38
2022-08-29T10:29:11.833Z,337.50
2022-08-29T10:30:12.076Z,382.50
2022-08-29T10:31:12.393Z,405.00
2022-08-29T10:32:12.567Z,388.12
2022-08-29T10:33:12.830Z,360.00
2022-08-29T10:34:13.145Z,343.12
2022-08-29T10:35:13.427Z,331.88
2022-08-29T10:36:13.689Z,348.75
2022-08-29T10:37:13.938Z,360.00
2022-08-29T10:38:14.197Z,354.38
2022-08-29T10:39:14.464Z,320.62
2022-08-29T10:40:16.790Z,298.12
2022-08-29T10:41:14.991Z,298.12
2022-08-29T10:42:15.262Z,286.88
2022-08-29T10:43:15.603Z,298.12
2022-08-29T10:45:16.144Z,354.38
2022-08-29T10:46:16.444Z,343.12
2022-08-29T10:47:16.906Z,320.62
2022-08-29T10:48:17.136Z,303.75
2022-08-29T10:49:17.293Z,298.12
2022-08-29T10:50:42.579Z,303.75
2022-08-29T10:51:18.795Z,286.88
2022-08-29T10:52:18.106Z,275.62
2022-08-29T10:53:18.415Z,258.75
2022-08-29T10:54:18.687Z,253.12
2022-08-29T10:55:18.988Z,264.38
2022-08-29T10:56:19.328Z,275.62
2022-08-29T10:57:19.583Z,292.50
2022-08-29T10:58:19.858Z,309.38
2022-08-29T10:59:20.140Z,343.12
2022-08-29T11:00:20.390Z,371.25
2022-08-29T11:01:20.752Z,376.88
2022-08-29T11:02:20.935Z,331.88
2022-08-29T11:03:21.204Z,270.00
2022-08-29T11:04:21.546Z,264.38
2022-08-29T11:05:21.807Z,258.75
2022-08-29T11:06:22.658Z,258.75
2022-08-29T11:07:22.423Z,253.12
2022-08-29T11:08:22.808Z,281.25
2022-08-29T11:09:22.975Z,303.75
2022-08-29T11:10:23.242Z,354.38
2022-08-29T11:11:23.527Z,382.50
2022-08-29T11:12:23.813Z,382.50
2022-08-29T11:13:24.100Z,337.50
2022-08-29T11:14:24.395Z,303.75
2022-08-29T11:15:24.667Z,241.88
2022-08-29T11:16:25.017Z,219.38
2022-08-29T11:17:25.292Z,163.12
2022-08-29T11:18:25.550Z,135.00
2022-08-29T11:19:25.847Z,140.62
2022-08-29T11:20:26.112Z,163.12
2022-08-29T11:21:26.398Z,213.75
2022-08-29T11:22:26.637Z,236.25
2022-08-29T11:23:26.911Z,163.12
2022-08-29T11:24:28.882Z,118.12
2022-08-29T11:25:27.632Z,106.88
2022-08-29T11:26:27.760Z,95.62
2022-08-29T11:27:28.015Z,90.00
2022-08-29T11:28:28.285Z,135.00
2022-08-29T11:29:28.619Z,168.75
2022-08-29T11:30:28.906Z,112.50
2022-08-29T11:31:29.320Z,67.50
2022-08-29T11:32:29.424Z,50.62
2022-08-29T11:33:29.705Z,61.88
2022-08-29T11:34:29.956Z,101.25
2022-08-29T11:35:30.227Z,146.25
2022-08-29T11:36:30.497Z,180.00
2022-08-29T11:37:30.760Z,225.00
2022-08-29T11:38:31.046Z,258.75
2022-08-29T11:39:31.306Z,281.25
2022-08-29T11:40:47.705Z,292.50
2022-08-29T11:41:33.088Z,298.12
2022-08-29T11:43:33.489Z,303.75
2022-08-29T11:44:32.849Z,298.12
2022-08-29T11:45:36.804Z,292.50
2022-08-29T11:46:33.481Z,292.50
2022-08-29T11:47:40.591Z,315.00
2022-08-29T11:48:35.092Z,337.50
2022-08-29T11:49:34.411Z,343.12
2022-08-29T11:50:34.676Z,360.00
2022-08-29T11:51:36.194Z,365.62
2022-08-29T11:52:35.238Z,360.00
2022-08-29T11:53:35.453Z,320.62
2022-08-29T11:54:36.169Z,303.75
2022-08-29T11:55:36.000Z,270.00
2022-08-29T11:56:36.256Z,281.25
2022-08-29T11:57:36.538Z,275.62
2022-08-29T11:58:36.815Z,264.38
2022-08-29T11:59:37.118Z,241.88
2022-08-29T12:00:37.387Z,225.00
2022-08-29T12:01:37.670Z,202.50
2022-08-29T12:02:37.928Z,196.88
2022-08-29T12:03:38.204Z,191.25
2022-08-29T12:04:38.530Z,196.88
2022-08-29T12:05:38.809Z,202.50
2022-08-29T12:06:39.078Z,208.12
2022-08-29T12:07:39.339Z,202.50
2022-08-29T12:08:39.671Z,202.50
2022-08-29T12:09:40.006Z,191.25
2022-08-29T12:10:40.271Z,202.50
2022-08-29T12:11:40.521Z,208.12
2022-08-29T12:12:40.824Z,213.75
2022-08-29T12:13:41.114Z,219.38
2022-08-29T12:14:41.393Z,213.75
2022-08-29T12:15:41.653Z,213.75
2022-08-29T12:16:41.983Z,219.38
2022-08-29T12:18:00.970Z,236.25
2022-08-29T12:18:43.592Z,230.62
2022-08-29T12:19:42.915Z,230.62
2022-08-29T12:20:43.222Z,225.00
2022-08-29T12:21:43.475Z,225.00
2022-08-29T12:23:43.996Z,208.12
2022-08-29T12:24:44.264Z,202.50
2022-08-29T12:25:45.607Z,219.38
2022-08-29T12:26:44.930Z,247.50
2022-08-29T12:27:45.179Z,270.00
2022-08-29T12:28:45.447Z,270.00
2022-08-29T12:29:45.741Z,258.75
2022-08-29T12:30:45.997Z,236.25
2022-08-29T12:32:02.225Z,202.50
2022-08-29T12:32:47.705Z,180.00
2022-08-29T12:33:46.932Z,168.75
2022-08-29T12:34:49.748Z,163.12
2022-08-29T12:35:47.442Z,146.25
2022-08-29T12:36:52.261Z,135.00
2022-08-29T12:37:49.105Z,123.75
2022-08-29T12:38:48.458Z,123.75
2022-08-29T12:39:48.693Z,135.00
2022-08-29T12:40:49.037Z,163.12
2022-08-29T12:41:49.183Z,157.50
2022-08-29T12:42:49.458Z,202.50
2022-08-29T12:43:49.686Z,230.62
2022-08-29T12:44:49.957Z,225.00
2022-08-29T12:45:50.238Z,337.50
2022-08-29T12:46:50.631Z,354.38
2022-08-29T12:47:50.809Z,365.62
2022-08-29T12:48:53.429Z,348.75
2022-08-29T12:49:52.277Z,343.12
2022-08-29T12:50:51.628Z,326.25
2022-08-29T12:51:51.871Z,281.25
2022-08-29T12:52:52.169Z,253.12
2022-08-29T12:53:52.419Z,253.12
2022-08-29T12:54:56.277Z,264.38
2022-08-29T12:55:53.900Z,258.75
2022-08-29T12:56:53.270Z,236.25
2022-08-29T12:57:53.537Z,213.75